createdAt,value
2023-01-21T00:01:09.527Z,48.25
2023-01-21T00:03:39.377Z,42.80
2023-01-21T00:06:08.121Z,41.17
2023-01-21T00:11:07.412Z,32.85
2023-01-21T00:13:36.036Z,36.83
2023-01-21T00:16:04.492Z,37.53
2023-01-21T00:18:32.557Z,42.00
2023-01-21T00:21:02.382Z,36.33
2023-01-21T00:23:30.473Z,37.88
2023-01-21T00:25:59.530Z,37.58
2023-01-21T00:28:29.257Z,40.78
2023-01-21T00:31:00.859Z,38.70
2023-01-21T00:33:29.233Z,37.08
2023-01-21T00:36:03.596Z,40.05
2023-01-21T00:38:32.106Z,38.42
2023-01-21T00:41:03.763Z,36.10
2023-01-21T00:43:32.324Z,37.70
2023-01-21T00:46:00.237Z,36.75
2023-01-21T00:48:28.737Z,35.10
2023-01-21T00:51:00.480Z,37.13
2023-01-21T00:53:31.039Z,37.00
2023-01-21T00:56:02.225Z,40.45
2023-01-21T00:58:31.169Z,40.40
2023-01-21T01:03:30.891Z,33.05
2023-01-21T01:06:03.026Z,33.30
2023-01-21T01:08:32.371Z,34.50
2023-01-21T01:11:00.550Z,35.42
2023-01-21T01:13:29.059Z,28.80
2023-01-21T01:15:58.499Z,46.83
2023-01-21T01:18:26.948Z,33.13
2023-01-21T01:20:54.749Z,32.95
2023-01-21T01:23:22.602Z,39.05
2023-01-21T01:25:57.894Z,32.17
2023-01-21T01:28:26.008Z,28.70
2023-01-21T01:30:54.392Z,33.80
2023-01-21T01:33:22.499Z,39.83
2023-01-21T01:35:50.903Z,28.33
2023-01-21T01:38:21.072Z,35.35
2023-01-21T01:40:49.654Z,29.50
2023-01-21T01:43:22.163Z,36.17
2023-01-21T01:45:50.256Z,30.48
2023-01-21T01:48:21.645Z,39.80
2023-01-21T01:50:50.537Z,34.53
2023-01-21T01:53:20.610Z,32.03
2023-01-21T01:55:50.299Z,36.97
2023-01-21T01:58:22.045Z,35.75
2023-01-21T02:00:49.946Z,30.25
2023-01-21T02:03:36.329Z,36.55
2023-01-21T02:06:04.627Z,35.22
2023-01-21T02:08:36.088Z,35.63
2023-01-21T02:11:07.647Z,38.90
2023-01-21T02:13:36.875Z,34.30
2023-01-21T02:16:16.580Z,41.67
2023-01-21T02:18:54.662Z,29.33
2023-01-21T02:21:41.906Z,32.17
2023-01-21T02:24:47.347Z,33.92
2023-01-21T02:27:46.844Z,26.92
2023-01-21T02:30:39.222Z,28.67
2023-01-21T02:33:44.487Z,29.70
2023-01-21T02:36:27.883Z,30.20
2023-01-21T02:39:04.462Z,33.67
2023-01-21T02:41:44.161Z,27.25
2023-01-21T02:44:17.601Z,40.50
2023-01-21T02:46:51.571Z,34.28
2023-01-21T02:49:26.355Z,26.45
2023-01-21T02:51:54.198Z,36.13
2023-01-21T02:54:50.323Z,36.97
2023-01-21T02:57:25.550Z,33.35
2023-01-21T02:59:56.213Z,31.98
2023-01-21T03:02:37.210Z,38.97
2023-01-21T03:05:15.374Z,31.13
2023-01-21T03:07:47.744Z,28.48
2023-01-21T03:10:20.474Z,29.52
2023-01-21T03:12:56.957Z,34.58
2023-01-21T03:15:47.293Z,32.05
2023-01-21T03:18:19.667Z,26.00
2023-01-21T03:20:53.445Z,28.10
2023-01-21T03:23:25.058Z,30.92
2023-01-21T03:25:53.100Z,24.33
2023-01-21T03:28:25.083Z,25.45
2023-01-21T03:30:57.196Z,36.70
2023-01-21T03:33:27.096Z,25.80
2023-01-21T03:35:58.965Z,28.98
2023-01-21T03:38:31.523Z,38.38
2023-01-21T03:41:02.758Z,26.02
2023-01-21T03:43:31.037Z,19.77
2023-01-21T03:46:05.586Z,21.77
2023-01-21T03:48:38.742Z,30.30
2023-01-21T03:51:12.053Z,26.55
2023-01-21T03:53:40.215Z,25.05
2023-01-21T03:56:08.589Z,27.88
2023-01-21T03:58:36.435Z,28.88
2023-01-21T04:01:04.436Z,28.23
2023-01-21T04:03:32.246Z,25.08
2023-01-21T04:06:00.118Z,26.25
2023-01-21T04:08:29.571Z,18.48
2023-01-21T04:10:57.403Z,22.77
2023-01-21T04:13:25.168Z,24.77
2023-01-21T04:15:52.976Z,26.85
2023-01-21T04:18:20.786Z,29.55
2023-01-21T04:20:48.649Z,34.50
2023-01-21T04:23:16.527Z,22.10
2023-01-21T04:25:45.656Z,28.60
2023-01-21T04:28:13.479Z,35.63
2023-01-21T04:30:41.391Z,23.65
2023-01-21T04:33:09.320Z,26.15
2023-01-21T04:35:37.243Z,29.90
2023-01-21T04:38:06.103Z,36.13
2023-01-21T04:40:33.958Z,30.50
2023-01-21T04:43:03.269Z,28.52
2023-01-21T04:45:31.135Z,30.35
2023-01-21T04:47:59.000Z,23.45
2023-01-21T04:50:26.982Z,35.33
2023-01-21T04:52:54.763Z,24.33
2023-01-21T04:55:24.842Z,27.33
2023-01-21T04:57:53.944Z,25.92
2023-01-21T05:00:23.755Z,27.15
2023-01-21T05:02:51.541Z,34.17
2023-01-21T05:05:19.830Z,27.00
2023-01-21T05:07:48.026Z,32.92
2023-01-21T05:10:17.686Z,27.30
2023-01-21T05:12:45.645Z,30.67
2023-01-21T05:15:13.436Z,30.98
2023-01-21T05:17:42.597Z,30.70
2023-01-21T05:20:11.500Z,28.40
2023-01-21T05:22:39.885Z,26.98
2023-01-21T05:25:08.278Z,32.38
2023-01-21T05:27:36.019Z,29.20
2023-01-21T05:30:04.143Z,36.00
2023-01-21T05:32:31.971Z,29.55
2023-01-21T05:35:01.196Z,32.63
2023-01-21T05:37:29.024Z,27.80
2023-01-21T05:39:56.800Z,32.45
2023-01-21T05:42:24.595Z,26.63
2023-01-21T05:44:52.415Z,32.08
2023-01-21T05:47:20.165Z,25.75
2023-01-21T05:49:47.910Z,29.05
2023-01-21T05:52:17.098Z,29.15
2023-01-21T05:55:00.531Z,27.55
2023-01-21T05:57:29.829Z,34.88
2023-01-21T05:59:57.777Z,39.22
2023-01-21T06:02:26.037Z,33.17
2023-01-21T06:04:54.084Z,34.38
2023-01-21T06:07:23.236Z,40.83
2023-01-21T06:09:51.028Z,38.10
2023-01-21T06:12:18.795Z,36.97
2023-01-21T06:14:46.603Z,38.05
2023-01-21T06:17:14.399Z,44.60
2023-01-21T06:19:42.237Z,41.75
2023-01-21T06:22:15.573Z,48.35
2023-01-21T06:24:44.801Z,38.25
2023-01-21T06:27:13.799Z,43.92
2023-01-21T06:29:41.568Z,43.20
2023-01-21T06:32:09.447Z,38.60
2023-01-21T06:34:37.223Z,36.05
2023-01-21T06:37:05.006Z,44.03
2023-01-21T06:39:32.872Z,39.30
2023-01-21T06:42:02.031Z,43.28
2023-01-21T06:44:29.794Z,40.25
2023-01-21T06:47:01.297Z,46.03
2023-01-21T06:49:29.387Z,41.45
2023-01-21T06:51:57.365Z,33.67
2023-01-21T06:54:25.155Z,34.70
2023-01-21T06:56:52.963Z,41.78
2023-01-21T06:59:22.154Z,48.28
2023-01-21T07:01:49.947Z,40.17
2023-01-21T07:04:17.739Z,41.90
2023-01-21T07:06:45.587Z,40.85
2023-01-21T07:09:13.491Z,52.60
2023-01-21T07:11:41.343Z,42.22
2023-01-21T07:14:09.531Z,40.95
2023-01-21T07:16:38.800Z,32.70
2023-01-21T07:19:06.626Z,40.10
2023-01-21T07:21:35.615Z,60.15
2023-01-21T07:24:03.451Z,40.28
2023-01-21T07:26:31.417Z,46.70
2023-01-21T07:29:02.048Z,32.40
2023-01-21T07:31:30.234Z,36.45
2023-01-21T07:33:59.526Z,21.38
2023-01-21T07:36:27.682Z,44.20
2023-01-21T07:38:55.780Z,42.47
2023-01-21T07:41:23.828Z,48.75
2023-01-21T07:43:52.285Z,42.58
2023-01-21T07:46:21.663Z,33.08
2023-01-21T07:48:51.055Z,38.80
2023-01-21T07:51:22.018Z,29.20
2023-01-21T07:53:50.048Z,45.85
2023-01-21T07:56:20.305Z,38.30
2023-01-21T07:58:48.130Z,44.50
2023-01-21T08:01:15.898Z,31.58
2023-01-21T08:03:43.703Z,44.20
2023-01-21T08:06:11.501Z,45.38
2023-01-21T08:08:40.670Z,47.58
2023-01-21T08:11:08.484Z,44.70
2023-01-21T08:13:36.333Z,39.75
2023-01-21T08:16:04.454Z,39.28
2023-01-21T08:18:32.281Z,40.10
2023-01-21T08:21:01.039Z,32.78
2023-01-21T08:23:28.825Z,43.38
2023-01-21T08:26:03.469Z,45.92
2023-01-21T08:28:31.251Z,40.25
2023-01-21T08:31:04.293Z,36.63
2023-01-21T08:33:32.155Z,49.75
2023-01-21T08:36:03.382Z,38.20
2023-01-21T08:38:31.147Z,34.90
2023-01-21T08:41:00.363Z,28.50
2023-01-21T08:43:28.212Z,48.78
2023-01-21T08:45:57.524Z,36.72
2023-01-21T08:48:25.434Z,32.60
2023-01-21T08:50:53.267Z,44.97
2023-01-21T08:53:21.588Z,38.92
2023-01-21T08:55:49.493Z,51.60
2023-01-21T08:58:18.645Z,38.42
2023-01-21T09:00:46.481Z,40.75
2023-01-21T09:03:17.019Z,37.85
2023-01-21T09:05:44.848Z,42.72
2023-01-21T09:08:12.855Z,47.25
2023-01-21T09:10:57.964Z,48.95
2023-01-21T09:13:29.265Z,38.88
2023-01-21T09:15:57.462Z,30.48
2023-01-21T09:18:25.362Z,39.95
2023-01-21T09:20:53.353Z,41.55
2023-01-21T09:23:28.055Z,31.48
2023-01-21T09:26:01.194Z,37.42
2023-01-21T09:28:31.437Z,29.17
2023-01-21T09:31:00.685Z,39.33
2023-01-21T09:33:29.851Z,42.03
2023-01-21T09:35:59.120Z,38.72
2023-01-21T09:38:27.706Z,34.75
2023-01-21T09:43:28.368Z,22.90
2023-01-21T09:46:03.022Z,36.75
2023-01-21T09:48:37.702Z,38.97
2023-01-21T09:51:14.501Z,32.28
2023-01-21T09:53:49.127Z,45.97
2023-01-21T09:56:23.944Z,24.90
2023-01-21T09:58:57.040Z,29.15
2023-01-21T10:01:32.613Z,31.08
2023-01-21T10:04:08.206Z,32.83
2023-01-21T10:06:43.151Z,37.25
2023-01-21T10:09:36.508Z,34.75
2023-01-21T10:12:21.514Z,37.33
2023-01-21T10:15:18.259Z,43.88
2023-01-21T10:17:56.550Z,33.47
2023-01-21T10:20:27.978Z,39.67
2023-01-21T10:23:00.345Z,48.50
2023-01-21T10:25:31.973Z,36.20
2023-01-21T10:28:05.983Z,42.70
2023-01-21T10:30:38.765Z,47.15
2023-01-21T10:33:16.989Z,40.42
2023-01-21T10:36:35.618Z,51.95
2023-01-21T10:39:13.723Z,41.05
2023-01-21T10:41:59.362Z,48.13
2023-01-21T10:44:37.451Z,33.83
2023-01-21T10:47:12.476Z,44.80
2023-01-21T10:49:54.081Z,50.50
2023-01-21T10:52:27.027Z,45.88
2023-01-21T10:55:03.593Z,45.75
2023-01-21T10:57:43.244Z,38.53
2023-01-21T11:00:21.801Z,32.55
2023-01-21T11:02:55.816Z,47.80
2023-01-21T11:05:26.690Z,49.58
2023-01-21T11:07:55.148Z,38.90
2023-01-21T11:10:25.744Z,32.15
2023-01-21T11:12:55.084Z,40.75
2023-01-21T11:15:24.121Z,36.03
2023-01-21T11:17:56.420Z,35.03
2023-01-21T11:20:34.314Z,27.90
2023-01-21T11:23:05.026Z,32.13
2023-01-21T11:25:38.614Z,37.20
2023-01-21T11:28:06.819Z,31.05
2023-01-21T11:30:50.715Z,32.17
2023-01-21T11:33:25.724Z,39.80
2023-01-21T11:35:57.620Z,27.75
2023-01-21T11:38:34.964Z,37.42
2023-01-21T11:41:15.034Z,28.58
2023-01-21T11:43:45.718Z,31.73
2023-01-21T11:46:28.501Z,35.38
2023-01-21T11:48:58.573Z,35.00
2023-01-21T11:51:27.815Z,47.33
2023-01-21T11:54:09.682Z,50.53
2023-01-21T11:56:37.712Z,43.78
2023-01-21T11:59:14.443Z,36.03
2023-01-21T12:01:42.254Z,37.40
2023-01-21T12:04:16.554Z,44.20
2023-01-21T12:06:48.526Z,38.25
2023-01-21T12:09:20.283Z,30.45
2023-01-21T12:12:06.145Z,36.13
2023-01-21T12:14:44.433Z,38.80
2023-01-21T12:17:19.807Z,38.42
2023-01-21T12:20:05.296Z,32.35
2023-01-21T12:22:53.463Z,31.83
2023-01-21T12:25:29.721Z,38.63
2023-01-21T12:28:08.864Z,31.50
2023-01-21T12:30:45.976Z,34.95
2023-01-21T12:33:19.290Z,31.58
2023-01-21T12:35:50.327Z,32.10
2023-01-21T12:38:23.842Z,32.03
2023-01-21T12:40:57.980Z,31.52
2023-01-21T12:43:30.753Z,34.63
2023-01-21T12:46:05.351Z,30.20
2023-01-21T12:48:38.285Z,42.78
2023-01-21T12:51:10.904Z,41.88
2023-01-21T12:53:45.374Z,35.00
2023-01-21T12:56:27.301Z,41.03
2023-01-21T12:58:58.417Z,27.30
2023-01-21T13:01:42.164Z,34.28
2023-01-21T13:04:25.161Z,30.23
2023-01-21T13:06:59.670Z,26.63
2023-01-21T13:09:38.744Z,28.42
2023-01-21T13:12:15.387Z,25.92
2023-01-21T13:14:48.431Z,28.02
2023-01-21T13:17:20.999Z,30.23
2023-01-21T13:19:49.091Z,29.48
2023-01-21T13:22:27.487Z,27.45
2023-01-21T13:25:05.757Z,29.90
2023-01-21T13:27:44.431Z,28.48
2023-01-21T13:30:24.716Z,33.17
2023-01-21T13:33:01.029Z,29.60
2023-01-21T13:35:38.676Z,36.55
2023-01-21T13:38:17.574Z,37.78
2023-01-21T13:40:54.954Z,37.85
2023-01-21T13:43:44.116Z,28.75
2023-01-21T13:46:26.819Z,36.05
2023-01-21T13:49:06.733Z,34.67
2023-01-21T13:51:49.502Z,39.60
2023-01-21T13:54:35.966Z,33.70
2023-01-21T13:57:26.236Z,33.80
2023-01-21T13:59:57.482Z,28.13
2023-01-21T14:02:32.699Z,36.33
2023-01-21T14:05:06.989Z,36.25
2023-01-21T14:07:39.501Z,34.65
2023-01-21T14:10:15.256Z,33.25
2023-01-21T14:13:10.982Z,31.40
2023-01-21T14:15:52.760Z,42.13
2023-01-21T14:18:38.286Z,30.10
2023-01-21T14:21:25.548Z,28.95
2023-01-21T14:24:05.065Z,28.00
2023-01-21T14:26:47.985Z,27.00
2023-01-21T14:29:24.089Z,31.23
2023-01-21T14:31:56.344Z,28.73
2023-01-21T14:34:28.684Z,31.70
2023-01-21T14:37:07.640Z,30.65
2023-01-21T14:39:50.475Z,26.38
2023-01-21T14:42:24.791Z,34.75
2023-01-21T14:45:08.336Z,26.17
2023-01-21T14:47:50.684Z,27.50
2023-01-21T14:50:44.917Z,29.33
2023-01-21T14:53:18.563Z,27.05
2023-01-21T14:55:46.424Z,29.15
2023-01-21T14:58:24.505Z,30.25
2023-01-21T15:00:53.883Z,34.40
2023-01-21T15:03:27.258Z,29.65
2023-01-21T15:05:57.863Z,28.52
2023-01-21T15:08:28.829Z,29.20
2023-01-21T15:11:00.148Z,31.30
2023-01-21T15:13:35.623Z,23.38
2023-01-21T15:16:12.989Z,34.00
2023-01-21T15:18:44.991Z,28.05
2023-01-21T15:21:34.648Z,23.55
2023-01-21T15:24:26.050Z,28.45
2023-01-21T15:27:17.582Z,27.92
2023-01-21T15:29:47.609Z,31.88
2023-01-21T15:32:38.806Z,25.67
2023-01-21T15:35:16.372Z,28.55
2023-01-21T15:37:46.957Z,22.20
2023-01-21T15:40:20.224Z,25.48
2023-01-21T15:42:55.226Z,20.05
2023-01-21T15:45:31.300Z,29.92
2023-01-21T15:48:30.137Z,29.67
2023-01-21T15:51:07.519Z,25.95
2023-01-21T15:53:52.761Z,33.95
2023-01-21T15:56:33.798Z,27.15
2023-01-21T15:59:12.377Z,27.48
2023-01-21T16:01:41.300Z,22.95
2023-01-21T16:04:21.926Z,27.25
2023-01-21T16:07:05.225Z,24.63
2023-01-21T16:09:44.441Z,33.00
2023-01-21T16:12:25.359Z,27.10
2023-01-21T16:15:01.158Z,24.83
2023-01-21T16:17:45.326Z,25.92
2023-01-21T16:20:16.592Z,29.98
2023-01-21T16:22:51.991Z,24.30
2023-01-21T16:25:22.892Z,23.33
2023-01-21T16:27:52.963Z,21.77
2023-01-21T16:30:23.022Z,31.05
2023-01-21T16:33:12.024Z,31.75
2023-01-21T16:35:46.285Z,25.63
2023-01-21T16:38:22.049Z,24.55
2023-01-21T16:40:51.190Z,23.35
2023-01-21T16:43:24.785Z,28.67
2023-01-21T16:45:55.076Z,30.77
2023-01-21T16:48:28.677Z,28.50
2023-01-21T16:50:58.435Z,26.73
2023-01-21T16:53:26.811Z,28.38
2023-01-21T16:55:57.155Z,26.98
2023-01-21T16:58:29.759Z,26.27
2023-01-21T17:01:06.118Z,28.73
2023-01-21T17:03:34.306Z,27.48
2023-01-21T17:06:08.401Z,27.55
2023-01-21T17:08:37.076Z,27.38
2023-01-21T17:11:09.443Z,23.17
2023-01-21T17:13:40.862Z,21.42
2023-01-21T17:16:21.321Z,23.60
2023-01-21T17:18:57.272Z,31.05
2023-01-21T17:21:33.471Z,23.15
2023-01-21T17:24:05.530Z,26.80
2023-01-21T17:26:36.851Z,31.50
2023-01-21T17:29:13.154Z,25.75
2023-01-21T17:31:42.460Z,32.03
2023-01-21T17:34:21.742Z,27.73
2023-01-21T17:36:52.931Z,25.00
2023-01-21T17:39:58.276Z,30.73
2023-01-21T17:42:30.346Z,28.23
2023-01-21T17:45:01.198Z,31.35
2023-01-21T17:47:31.930Z,31.92
2023-01-21T17:50:02.786Z,27.30
2023-01-21T17:52:32.387Z,27.90
2023-01-21T17:55:15.186Z,31.13
2023-01-21T17:57:43.041Z,25.58
2023-01-21T18:00:35.599Z,29.05
2023-01-21T18:03:03.595Z,24.67
2023-01-21T18:05:32.019Z,19.00
2023-01-21T18:08:01.205Z,31.42
2023-01-21T18:10:30.654Z,34.47
2023-01-21T18:12:58.907Z,31.90
2023-01-21T18:15:27.791Z,25.65
2023-01-21T18:18:01.111Z,32.67
2023-01-21T18:20:30.765Z,28.58
2023-01-21T18:23:00.910Z,33.45
2023-01-21T18:25:29.276Z,31.90
2023-01-21T18:27:57.370Z,31.58
2023-01-21T18:30:27.525Z,26.17
2023-01-21T18:32:56.558Z,26.58
2023-01-21T18:35:27.725Z,30.33
2023-01-21T18:37:55.901Z,29.00
2023-01-21T18:40:25.313Z,22.13
2023-01-21T18:42:55.999Z,30.00
2023-01-21T18:45:27.502Z,31.15
2023-01-21T18:47:55.915Z,35.90
2023-01-21T18:50:25.166Z,33.30
2023-01-21T18:52:53.193Z,27.80
2023-01-21T18:55:22.030Z,26.50
2023-01-21T18:57:51.844Z,32.25
2023-01-21T19:00:22.711Z,31.67
2023-01-21T19:02:53.452Z,30.48
2023-01-21T19:05:22.347Z,26.25
2023-01-21T19:07:50.140Z,29.52
2023-01-21T19:10:21.396Z,29.45
2023-01-21T19:12:51.494Z,32.15
2023-01-21T19:15:20.663Z,30.55
2023-01-21T19:17:49.272Z,28.42
2023-01-21T19:22:47.486Z,30.08
2023-01-21T19:27:45.239Z,20.85
2023-01-21T19:30:25.136Z,30.75
2023-01-21T19:32:54.761Z,30.40
2023-01-21T19:35:29.058Z,40.10
2023-01-21T19:37:56.921Z,23.52
2023-01-21T19:40:30.690Z,35.15
2023-01-21T19:42:58.539Z,30.02
2023-01-21T19:45:30.096Z,32.38
2023-01-21T19:47:57.879Z,26.23
2023-01-21T19:50:27.767Z,35.47
2023-01-21T19:52:55.972Z,33.85
2023-01-21T19:55:25.609Z,29.52
2023-01-21T19:57:57.344Z,25.55
2023-01-21T20:00:27.309Z,26.45
2023-01-21T20:02:56.865Z,31.35
2023-01-21T20:05:26.240Z,32.97
2023-01-21T20:07:54.898Z,27.40
2023-01-21T20:12:51.688Z,30.92
2023-01-21T20:15:22.212Z,26.02
2023-01-21T20:17:52.690Z,31.67
2023-01-21T20:20:24.982Z,27.23
2023-01-21T20:22:52.803Z,33.40
2023-01-21T20:25:22.194Z,31.85
2023-01-21T20:27:53.047Z,30.15
2023-01-21T20:30:23.036Z,30.02
2023-01-21T20:32:51.145Z,31.00
2023-01-21T20:35:24.561Z,29.40
2023-01-21T20:37:54.091Z,31.15
2023-01-21T20:40:23.942Z,35.85
2023-01-21T20:42:52.990Z,27.17
2023-01-21T20:45:23.324Z,33.95
2023-01-21T20:47:54.180Z,28.52
2023-01-21T20:50:26.283Z,43.08
2023-01-21T20:52:55.221Z,31.90
2023-01-21T20:55:24.353Z,38.42
2023-01-21T20:57:52.420Z,28.92
2023-01-21T21:00:22.767Z,37.08
2023-01-21T21:02:50.748Z,37.00
2023-01-21T21:05:19.447Z,40.63
2023-01-21T21:07:49.070Z,46.28
2023-01-21T21:10:21.933Z,35.70
2023-01-21T21:12:50.503Z,40.70
2023-01-21T21:17:48.005Z,34.60
2023-01-21T21:20:19.648Z,33.17
2023-01-21T21:22:49.003Z,32.28
2023-01-21T21:25:18.538Z,37.65
2023-01-21T21:27:47.262Z,32.80
2023-01-21T21:30:17.069Z,25.08
2023-01-21T21:32:44.941Z,31.55
2023-01-21T21:35:27.380Z,32.85
2023-01-21T21:37:58.221Z,24.85
2023-01-21T21:40:29.265Z,36.22
2023-01-21T21:43:14.638Z,26.17
2023-01-21T21:46:02.640Z,25.25
2023-01-21T21:48:39.830Z,26.13
2023-01-21T21:51:09.011Z,23.00
2023-01-21T21:53:39.236Z,26.13
2023-01-21T21:56:09.500Z,27.83
2023-01-21T21:58:37.599Z,25.27
2023-01-21T22:01:10.901Z,31.83
2023-01-21T22:03:39.311Z,22.73
2023-01-21T22:06:08.593Z,23.67
2023-01-21T22:08:39.082Z,28.55
2023-01-21T22:11:09.539Z,24.83
2023-01-21T22:13:40.158Z,23.40
2023-01-21T22:16:10.989Z,25.15
2023-01-21T22:18:39.083Z,24.02
2023-01-21T22:21:08.903Z,24.77
2023-01-21T22:23:38.757Z,22.52
2023-01-21T22:26:09.475Z,20.45
2023-01-21T22:28:37.468Z,26.35
2023-01-21T22:31:07.027Z,23.00
2023-01-21T22:33:35.997Z,28.38
2023-01-21T22:36:04.364Z,19.52
2023-01-21T22:38:34.060Z,24.90
2023-01-21T22:41:03.869Z,23.10
2023-01-21T22:43:33.115Z,23.23
2023-01-21T22:46:02.150Z,19.58
2023-01-21T22:48:32.399Z,31.58
2023-01-21T22:51:01.473Z,24.23
2023-01-21T22:53:30.123Z,21.33
2023-01-21T22:58:29.051Z,18.25
2023-01-21T23:00:57.368Z,19.48
2023-01-21T23:03:25.958Z,21.02
2023-01-21T23:08:21.360Z,20.75
2023-01-21T23:10:49.132Z,21.75
2023-01-21T23:13:17.715Z,21.77
2023-01-21T23:15:48.008Z,22.30
2023-01-21T23:18:16.099Z,19.98
2023-01-21T23:20:44.239Z,22.58
2023-01-21T23:23:13.374Z,23.63
2023-01-21T23:25:41.529Z,22.77
2023-01-21T23:28:09.374Z,20.90
2023-01-21T23:30:38.000Z,23.10
2023-01-21T23:35:35.132Z,17.95
2023-01-21T23:38:03.570Z,19.60
2023-01-21T23:40:31.551Z,12.48
2023-01-21T23:42:59.412Z,16.98
2023-01-21T23:45:27.407Z,25.83
2023-01-21T23:47:55.465Z,23.10
2023-01-21T23:50:24.735Z,23.95
2023-01-21T23:52:52.492Z,21.50
2023-01-21T23:55:20.258Z,18.13
2023-01-21T23:57:47.993Z,25.08
